sensor_id;sensor_type;location;lat;lon;timestamp;temperature;humidity
57709;SHT35;42558;52.388;13.390;2024-03-29T00:00:59;8.73;74.22
57709;SHT35;42558;52.388;13.390;2024-03-29T00:03:30;8.60;75.66
57709;SHT35;42558;52.388;13.390;2024-03-29T00:05:59;8.48;76.43
57709;SHT35;42558;52.388;13.390;2024-03-29T00:08:29;8.38;77.56
57709;SHT35;42558;52.388;13.390;2024-03-29T00:10:58;8.30;77.25
57709;SHT35;42558;52.388;13.390;2024-03-29T00:13:27;8.26;77.47
57709;SHT35;42558;52.388;13.390;2024-03-29T00:15:56;8.24;77.43
57709;SHT35;42558;52.388;13.390;2024-03-29T00:18:25;8.20;77.73
57709;SHT35;42558;52.388;13.390;2024-03-29T00:20:54;8.11;78.52
57709;SHT35;42558;52.388;13.390;2024-03-29T00:23:22;8.02;79.23
57709;SHT35;42558;52.388;13.390;2024-03-29T00:25:51;7.90;80.21
57709;SHT35;42558;52.388;13.390;2024-03-29T00:28:20;7.79;81.00
57709;SHT35;42558;52.388;13.390;2024-03-29T00:30:49;7.68;81.50
57709;SHT35;42558;52.388;13.390;2024-03-29T00:33:18;7.56;81.90
57709;SHT35;42558;52.388;13.390;2024-03-29T00:35:47;7.47;82.46
57709;SHT35;42558;52.388;13.390;2024-03-29T00:38:16;7.38;82.83
57709;SHT35;42558;52.388;13.390;2024-03-29T00:40:45;7.31;83.25
57709;SHT35;42558;52.388;13.390;2024-03-29T00:43:14;7.19;83.69
57709;SHT35;42558;52.388;13.390;2024-03-29T00:45:43;7.15;83.79
57709;SHT35;42558;52.388;13.390;2024-03-29T00:48:12;7.12;83.84
57709;SHT35;42558;52.388;13.390;2024-03-29T00:50:43;7.06;84.25
57709;SHT35;42558;52.388;13.390;2024-03-29T00:53:12;6.97;84.74
57709;SHT35;42558;52.388;13.390;2024-03-29T00:55:41;6.89;85.17
57709;SHT35;42558;52.388;13.390;2024-03-29T00:58:10;6.86;85.22
57709;SHT35;42558;52.388;13.390;2024-03-29T01:00:39;6.84;85.39
57709;SHT35;42558;52.388;13.390;2024-03-29T01:03:08;6.86;85.37
57709;SHT35;42558;52.388;13.390;2024-03-29T01:05:37;6.84;85.27
57709;SHT35;42558;52.388;13.390;2024-03-29T01:08:06;6.81;85.51
57709;SHT35;42558;52.388;13.390;2024-03-29T01:10:34;6.74;85.48
57709;SHT35;42558;52.388;13.390;2024-03-29T01:13:03;6.73;85.53
57709;SHT35;42558;52.388;13.390;2024-03-29T01:15:29;6.72;85.38
57709;SHT35;42558;52.388;13.390;2024-03-29T01:17:58;6.69;85.28
57709;SHT35;42558;52.388;13.390;2024-03-29T01:20:24;6.67;85.14
57709;SHT35;42558;52.388;13.390;2024-03-29T01:22:53;6.64;84.99
57709;SHT35;42558;52.388;13.390;2024-03-29T01:25:20;6.62;84.78
57709;SHT35;42558;52.388;13.390;2024-03-29T01:27:48;6.57;84.89
57709;SHT35;42558;52.388;13.390;2024-03-29T01:30:14;6.57;84.73
57709;SHT35;42558;52.388;13.390;2024-03-29T01:32:43;6.53;84.67
57709;SHT35;42558;52.388;13.390;2024-03-29T01:35:09;6.49;84.84
57709;SHT35;42558;52.388;13.390;2024-03-29T01:37:38;6.46;84.67
57709;SHT35;42558;52.388;13.390;2024-03-29T01:40:05;6.49;84.07
57709;SHT35;42558;52.388;13.390;2024-03-29T01:42:39;6.48;83.93
57709;SHT35;42558;52.388;13.390;2024-03-29T01:45:08;6.49;83.69
57709;SHT35;42558;52.388;13.390;2024-03-29T01:47:41;6.47;83.57
57709;SHT35;42558;52.388;13.390;2024-03-29T01:50:10;6.43;83.47
57709;SHT35;42558;52.388;13.390;2024-03-29T01:52:39;6.39;83.43
57709;SHT35;42558;52.388;13.390;2024-03-29T01:55:08;6.36;83.30
57709;SHT35;42558;52.388;13.390;2024-03-29T01:57:37;6.33;83.13
57709;SHT35;42558;52.388;13.390;2024-03-29T02:00:09;6.33;83.01
57709;SHT35;42558;52.388;13.390;2024-03-29T02:02:40;6.26;83.05
57709;SHT35;42558;52.388;13.390;2024-03-29T02:05:10;6.23;83.04
57709;SHT35;42558;52.388;13.390;2024-03-29T02:07:39;6.30;82.54
57709;SHT35;42558;52.388;13.390;2024-03-29T02:10:10;6.30;82.30
57709;SHT35;42558;52.388;13.390;2024-03-29T02:12:41;6.34;81.99
57709;SHT35;42558;52.388;13.390;2024-03-29T02:15:14;6.33;81.73
57709;SHT35;42558;52.388;13.390;2024-03-29T02:17:45;6.29;81.74
57709;SHT35;42558;52.388;13.390;2024-03-29T02:20:13;6.36;81.29
57709;SHT35;42558;52.388;13.390;2024-03-29T02:22:45;6.33;81.20
57709;SHT35;42558;52.388;13.390;2024-03-29T02:25:28;6.24;81.52
57709;SHT35;42558;52.388;13.390;2024-03-29T02:27:57;6.22;81.34
57709;SHT35;42558;52.388;13.390;2024-03-29T02:30:30;6.18;81.39
57709;SHT35;42558;52.388;13.390;2024-03-29T02:33:00;6.11;81.65
57709;SHT35;42558;52.388;13.390;2024-03-29T02:35:29;6.07;81.73
57709;SHT35;42558;52.388;13.390;2024-03-29T02:38:01;5.98;82.13
57709;SHT35;42558;52.388;13.390;2024-03-29T02:40:30;5.95;82.03
57709;SHT35;42558;52.388;13.390;2024-03-29T02:42:59;5.92;82.14
57709;SHT35;42558;52.388;13.390;2024-03-29T02:45:28;5.95;81.62
57709;SHT35;42558;52.388;13.390;2024-03-29T02:47:57;5.90;81.79
57709;SHT35;42558;52.388;13.390;2024-03-29T02:50:26;5.86;81.81
57709;SHT35;42558;52.388;13.390;2024-03-29T02:52:55;5.85;81.67
57709;SHT35;42558;52.388;13.390;2024-03-29T02:55:24;5.80;81.70
57709;SHT35;42558;52.388;13.390;2024-03-29T02:57:53;5.79;81.59
57709;SHT35;42558;52.388;13.390;2024-03-29T03:00:21;5.73;81.76
57709;SHT35;42558;52.388;13.390;2024-03-29T03:02:50;5.68;81.89
57709;SHT35;42558;52.388;13.390;2024-03-29T03:05:19;5.64;81.84
57709;SHT35;42558;52.388;13.390;2024-03-29T03:07:48;5.60;82.08
57709;SHT35;42558;52.388;13.390;2024-03-29T03:10:36;5.55;82.09
57709;SHT35;42558;52.388;13.390;2024-03-29T03:13:29;5.55;81.80
57709;SHT35;42558;52.388;13.390;2024-03-29T03:15:59;5.52;81.81
57709;SHT35;42558;52.388;13.390;2024-03-29T03:18:27;5.45;82.06
57709;SHT35;42558;52.388;13.390;2024-03-29T03:20:56;5.46;81.85
57709;SHT35;42558;52.388;13.390;2024-03-29T03:23:25;5.40;82.07
57709;SHT35;42558;52.388;13.390;2024-03-29T03:25:54;5.41;81.97
57709;SHT35;42558;52.388;13.390;2024-03-29T03:28:32;5.46;81.62
57709;SHT35;42558;52.388;13.390;2024-03-29T03:31:01;5.47;81.43
57709;SHT35;42558;52.388;13.390;2024-03-29T03:33:30;5.41;81.58
57709;SHT35;42558;52.388;13.390;2024-03-29T03:35:59;5.40;81.50
57709;SHT35;42558;52.388;13.390;2024-03-29T03:38:28;5.41;81.25
57709;SHT35;42558;52.388;13.390;2024-03-29T03:40:57;5.39;81.27
57709;SHT35;42558;52.388;13.390;2024-03-29T03:43:26;5.36;81.34
57709;SHT35;42558;52.388;13.390;2024-03-29T03:46:00;5.33;81.19
57709;SHT35;42558;52.388;13.390;2024-03-29T03:48:30;5.32;81.24
57709;SHT35;42558;52.388;13.390;2024-03-29T03:51:00;5.36;80.84
57709;SHT35;42558;52.388;13.390;2024-03-29T03:53:29;5.39;80.53
57709;SHT35;42558;52.388;13.390;2024-03-29T03:55:57;5.38;80.40
57709;SHT35;42558;52.388;13.390;2024-03-29T03:58:26;5.32;80.66
57709;SHT35;42558;52.388;13.390;2024-03-29T04:00:55;5.22;80.98
57709;SHT35;42558;52.388;13.390;2024-03-29T04:03:24;5.23;80.87
57709;SHT35;42558;52.388;13.390;2024-03-29T04:05:53;5.26;80.69
57709;SHT35;42558;52.388;13.390;2024-03-29T04:08:22;5.34;80.10
57709;SHT35;42558;52.388;13.390;2024-03-29T04:10:51;5.33;80.06
57709;SHT35;42558;52.388;13.390;2024-03-29T04:13:20;5.31;80.16
57709;SHT35;42558;52.388;13.390;2024-03-29T04:15:48;5.30;80.15
57709;SHT35;42558;52.388;13.390;2024-03-29T04:18:18;5.32;80.01
57709;SHT35;42558;52.388;13.390;2024-03-29T04:20:46;5.33;79.77
57709;SHT35;42558;52.388;13.390;2024-03-29T04:23:25;5.36;79.64
57709;SHT35;42558;52.388;13.390;2024-03-29T04:25:54;5.43;79.09
57709;SHT35;42558;52.388;13.390;2024-03-29T04:28:25;5.39;79.25
57709;SHT35;42558;52.388;13.390;2024-03-29T04:30:55;5.36;79.32
57709;SHT35;42558;52.388;13.390;2024-03-29T04:33:27;5.32;79.47
57709;SHT35;42558;52.388;13.390;2024-03-29T04:36:00;5.33;79.37
57709;SHT35;42558;52.388;13.390;2024-03-29T04:38:32;5.27;79.69
57709;SHT35;42558;52.388;13.390;2024-03-29T04:41:01;5.21;80.11
57709;SHT35;42558;52.388;13.390;2024-03-29T04:43:30;5.14;80.34
57709;SHT35;42558;52.388;13.390;2024-03-29T04:46:02;5.04;80.82
57709;SHT35;42558;52.388;13.390;2024-03-29T04:48:41;4.98;80.97
57709;SHT35;42558;52.388;13.390;2024-03-29T04:51:11;4.94;80.97
57709;SHT35;42558;52.388;13.390;2024-03-29T04:53:41;4.92;81.42
57709;SHT35;42558;52.388;13.390;2024-03-29T04:56:10;4.99;81.29
57709;SHT35;42558;52.388;13.390;2024-03-29T04:58:39;5.06;81.04
57709;SHT35;42558;52.388;13.390;2024-03-29T05:01:08;5.09;80.90
57709;SHT35;42558;52.388;13.390;2024-03-29T05:03:37;5.16;80.69
57709;SHT35;42558;52.388;13.390;2024-03-29T05:06:06;5.23;80.33
57709;SHT35;42558;52.388;13.390;2024-03-29T05:08:35;5.34;79.76
57709;SHT35;42558;52.388;13.390;2024-03-29T05:11:05;5.39;79.70
57709;SHT35;42558;52.388;13.390;2024-03-29T05:13:36;5.46;79.31
57709;SHT35;42558;52.388;13.390;2024-03-29T05:16:07;5.50;79.11
57709;SHT35;42558;52.388;13.390;2024-03-29T05:18:36;5.58;78.72
57709;SHT35;42558;52.388;13.390;2024-03-29T05:21:05;5.59;78.96
57709;SHT35;42558;52.388;13.390;2024-03-29T05:23:34;5.57;79.30
57709;SHT35;42558;52.388;13.390;2024-03-29T05:26:03;5.59;78.95
57709;SHT35;42558;52.388;13.390;2024-03-29T05:28:32;5.61;79.44
57709;SHT35;42558;52.388;13.390;2024-03-29T05:31:11;5.59;79.51
57709;SHT35;42558;52.388;13.390;2024-03-29T05:33:42;5.62;79.54
57709;SHT35;42558;52.388;13.390;2024-03-29T05:36:13;5.72;78.51
57709;SHT35;42558;52.388;13.390;2024-03-29T05:38:42;5.80;78.13
57709;SHT35;42558;52.388;13.390;2024-03-29T05:41:12;5.85;78.16
57709;SHT35;42558;52.388;13.390;2024-03-29T05:43:40;5.87;78.13
57709;SHT35;42558;52.388;13.390;2024-03-29T05:46:10;5.93;77.49
57709;SHT35;42558;52.388;13.390;2024-03-29T05:48:38;6.02;77.45
57709;SHT35;42558;52.388;13.390;2024-03-29T05:51:07;6.03;77.60
57709;SHT35;42558;52.388;13.390;2024-03-29T05:53:36;6.08;77.51
57709;SHT35;42558;52.388;13.390;2024-03-29T05:56:06;6.12;77.08
57709;SHT35;42558;52.388;13.390;2024-03-29T05:58:36;6.20;77.04
57709;SHT35;42558;52.388;13.390;2024-03-29T06:01:03;6.25;77.23
57709;SHT35;42558;52.388;13.390;2024-03-29T06:03:32;6.28;77.37
57709;SHT35;42558;52.388;13.390;2024-03-29T06:05:58;6.31;76.94
57709;SHT35;42558;52.388;13.390;2024-03-29T06:08:27;6.33;77.01
57709;SHT35;42558;52.388;13.390;2024-03-29T06:10:55;6.37;76.92
57709;SHT35;42558;52.388;13.390;2024-03-29T06:13:24;6.47;77.19
57709;SHT35;42558;52.388;13.390;2024-03-29T06:16:21;6.49;76.67
57709;SHT35;42558;52.388;13.390;2024-03-29T06:19:12;6.60;76.31
57709;SHT35;42558;52.388;13.390;2024-03-29T06:21:41;6.72;76.21
57709;SHT35;42558;52.388;13.390;2024-03-29T06:24:11;6.79;75.86
57709;SHT35;42558;52.388;13.390;2024-03-29T06:26:41;6.85;75.52
57709;SHT35;42558;52.388;13.390;2024-03-29T06:29:10;6.97;75.69
57709;SHT35;42558;52.388;13.390;2024-03-29T06:31:39;7.07;75.26
57709;SHT35;42558;52.388;13.390;2024-03-29T06:34:08;7.13;74.84
57709;SHT35;42558;52.388;13.390;2024-03-29T06:36:37;7.21;73.94
57709;SHT35;42558;52.388;13.390;2024-03-29T06:39:07;7.33;73.48
57709;SHT35;42558;52.388;13.390;2024-03-29T06:41:37;7.47;74.21
57709;SHT35;42558;52.388;13.390;2024-03-29T06:44:06;7.59;73.81
57709;SHT35;42558;52.388;13.390;2024-03-29T06:46:35;7.70;73.73
57709;SHT35;42558;52.388;13.390;2024-03-29T06:49:04;7.73;72.83
57709;SHT35;42558;52.388;13.390;2024-03-29T06:51:34;7.86;73.26
57709;SHT35;42558;52.388;13.390;2024-03-29T06:54:03;7.95;72.13
57709;SHT35;42558;52.388;13.390;2024-03-29T06:56:32;8.04;71.56
57709;SHT35;42558;52.388;13.390;2024-03-29T06:59:01;8.16;71.14
57709;SHT35;42558;52.388;13.390;2024-03-29T07:01:30;8.38;71.99
57709;SHT35;42558;52.388;13.390;2024-03-29T07:03:59;8.54;70.18
57709;SHT35;42558;52.388;13.390;2024-03-29T07:06:28;8.52;69.40
57709;SHT35;42558;52.388;13.390;2024-03-29T07:08:57;8.51;69.93
57709;SHT35;42558;52.388;13.390;2024-03-29T07:11:26;8.54;69.92
57709;SHT35;42558;52.388;13.390;2024-03-29T07:13:55;8.49;70.41
57709;SHT35;42558;52.388;13.390;2024-03-29T07:16:24;8.57;70.93
57709;SHT35;42558;52.388;13.390;2024-03-29T07:18:53;8.52;70.52
57709;SHT35;42558;52.388;13.390;2024-03-29T07:21:22;8.55;70.33
57709;SHT35;42558;52.388;13.390;2024-03-29T07:23:53;8.61;69.89
57709;SHT35;42558;52.388;13.390;2024-03-29T07:26:22;8.67;69.79
57709;SHT35;42558;52.388;13.390;2024-03-29T07:28:52;8.74;69.58
57709;SHT35;42558;52.388;13.390;2024-03-29T07:31:21;8.83;69.57
57709;SHT35;42558;52.388;13.390;2024-03-29T07:33:50;8.87;69.27
57709;SHT35;42558;52.388;13.390;2024-03-29T07:36:19;8.94;68.99
57709;SHT35;42558;52.388;13.390;2024-03-29T07:38:47;8.98;69.12
57709;SHT35;42558;52.388;13.390;2024-03-29T07:41:16;9.04;68.69
57709;SHT35;42558;52.388;13.390;2024-03-29T07:43:52;9.18;69.16
57709;SHT35;42558;52.388;13.390;2024-03-29T07:46:27;9.25;68.84
57709;SHT35;42558;52.388;13.390;2024-03-29T07:48:59;9.28;68.27
57709;SHT35;42558;52.388;13.390;2024-03-29T07:51:29;9.33;67.35
57709;SHT35;42558;52.388;13.390;2024-03-29T07:53:58;9.37;67.53
57709;SHT35;42558;52.388;13.390;2024-03-29T07:56:28;9.44;67.54
57709;SHT35;42558;52.388;13.390;2024-03-29T07:58:57;9.47;66.73
57709;SHT35;42558;52.388;13.390;2024-03-29T08:01:26;9.48;67.32
57709;SHT35;42558;52.388;13.390;2024-03-29T08:03:54;9.50;67.53
57709;SHT35;42558;52.388;13.390;2024-03-29T08:06:23;9.49;67.88
57709;SHT35;42558;52.388;13.390;2024-03-29T08:08:52;9.53;68.00
57709;SHT35;42558;52.388;13.390;2024-03-29T08:11:21;9.52;68.19
57709;SHT35;42558;52.388;13.390;2024-03-29T08:13:50;9.49;67.80
57709;SHT35;42558;52.388;13.390;2024-03-29T08:16:20;9.51;68.49
57709;SHT35;42558;52.388;13.390;2024-03-29T08:18:49;9.52;68.36
57709;SHT35;42558;52.388;13.390;2024-03-29T08:21:18;9.53;68.00
57709;SHT35;42558;52.388;13.390;2024-03-29T08:23:47;9.59;68.67
57709;SHT35;42558;52.388;13.390;2024-03-29T08:26:16;9.64;68.31
57709;SHT35;42558;52.388;13.390;2024-03-29T08:28:45;9.69;68.29
57709;SHT35;42558;52.388;13.390;2024-03-29T08:31:14;9.81;68.80
57709;SHT35;42558;52.388;13.390;2024-03-29T08:33:45;9.90;67.83
57709;SHT35;42558;52.388;13.390;2024-03-29T08:36:13;10.07;67.74
57709;SHT35;42558;52.388;13.390;2024-03-29T08:38:43;10.12;68.27
57709;SHT35;42558;52.388;13.390;2024-03-29T08:41:15;10.16;68.34
57709;SHT35;42558;52.388;13.390;2024-03-29T08:43:44;10.33;68.48
57709;SHT35;42558;52.388;13.390;2024-03-29T08:46:12;10.32;68.06
57709;SHT35;42558;52.388;13.390;2024-03-29T08:48:40;10.44;67.49
57709;SHT35;42558;52.388;13.390;2024-03-29T08:51:09;10.53;67.18
57709;SHT35;42558;52.388;13.390;2024-03-29T08:53:36;10.62;66.77
57709;SHT35;42558;52.388;13.390;2024-03-29T08:56:04;10.54;66.07
57709;SHT35;42558;52.388;13.390;2024-03-29T08:58:31;10.58;66.32
57709;SHT35;42558;52.388;13.390;2024-03-29T09:00:59;10.70;66.54
57709;SHT35;42558;52.388;13.390;2024-03-29T09:03:32;10.69;65.81
57709;SHT35;42558;52.388;13.390;2024-03-29T09:06:01;10.67;65.95
57709;SHT35;42558;52.388;13.390;2024-03-29T09:08:31;10.78;65.99
57709;SHT35;42558;52.388;13.390;2024-03-29T09:11:00;10.83;66.14
57709;SHT35;42558;52.388;13.390;2024-03-29T09:13:31;11.05;66.22
57709;SHT35;42558;52.388;13.390;2024-03-29T09:16:00;11.22;64.94
57709;SHT35;42558;52.388;13.390;2024-03-29T09:18:29;11.18;64.47
57709;SHT35;42558;52.388;13.390;2024-03-29T09:20:58;11.33;64.60
57709;SHT35;42558;52.388;13.390;2024-03-29T09:23:28;11.34;64.53
57709;SHT35;42558;52.388;13.390;2024-03-29T09:25:57;11.56;64.05
57709;SHT35;42558;52.388;13.390;2024-03-29T09:28:26;11.46;63.66
57709;SHT35;42558;52.388;13.390;2024-03-29T09:30:59;11.56;63.64
57709;SHT35;42558;52.388;13.390;2024-03-29T09:33:29;11.79;63.99
57709;SHT35;42558;52.388;13.390;2024-03-29T09:35:58;11.93;63.44
57709;SHT35;42558;52.388;13.390;2024-03-29T09:38:28;11.90;62.81
57709;SHT35;42558;52.388;13.390;2024-03-29T09:41:06;12.07;62.37
57709;SHT35;42558;52.388;13.390;2024-03-29T09:43:46;12.01;62.56
57709;SHT35;42558;52.388;13.390;2024-03-29T09:46:16;11.99;61.79
57709;SHT35;42558;52.388;13.390;2024-03-29T09:48:46;12.03;61.68
57709;SHT35;42558;52.388;13.390;2024-03-29T09:51:17;11.88;61.07
57709;SHT35;42558;52.388;13.390;2024-03-29T09:53:50;11.90;61.82
57709;SHT35;42558;52.388;13.390;2024-03-29T09:56:20;12.10;61.56
57709;SHT35;42558;52.388;13.390;2024-03-29T09:58:50;11.92;60.48
57709;SHT35;42558;52.388;13.390;2024-03-29T10:01:19;12.00;60.68
57709;SHT35;42558;52.388;13.390;2024-03-29T10:03:50;12.13;61.01
57709;SHT35;42558;52.388;13.390;2024-03-29T10:06:23;11.98;60.67
57709;SHT35;42558;52.388;13.390;2024-03-29T10:08:53;12.10;61.60
57709;SHT35;42558;52.388;13.390;2024-03-29T10:11:26;12.07;61.80
57709;SHT35;42558;52.388;13.390;2024-03-29T10:13:55;11.99;62.94
57709;SHT35;42558;52.388;13.390;2024-03-29T10:16:24;11.92;63.53
57709;SHT35;42558;52.388;13.390;2024-03-29T10:18:53;11.60;65.29
57709;SHT35;42558;52.388;13.390;2024-03-29T10:21:25;11.40;66.30
57709;SHT35;42558;52.388;13.390;2024-03-29T10:23:57;11.19;67.16
57709;SHT35;42558;52.388;13.390;2024-03-29T10:26:26;11.18;67.25
57709;SHT35;42558;52.388;13.390;2024-03-29T10:28:55;11.28;67.48
57709;SHT35;42558;52.388;13.390;2024-03-29T10:31:24;11.29;67.84
57709;SHT35;42558;52.388;13.390;2024-03-29T10:33:53;11.32;67.76
57709;SHT35;42558;52.388;13.390;2024-03-29T10:36:25;11.39;67.85
57709;SHT35;42558;52.388;13.390;2024-03-29T10:38:54;11.30;68.22
57709;SHT35;42558;52.388;13.390;2024-03-29T10:41:24;11.20;68.05
57709;SHT35;42558;52.388;13.390;2024-03-29T10:43:55;11.24;68.87
57709;SHT35;42558;52.388;13.390;2024-03-29T10:46:28;11.31;68.69
57709;SHT35;42558;52.388;13.390;2024-03-29T10:48:59;11.21;68.63
57709;SHT35;42558;52.388;13.390;2024-03-29T10:51:29;11.26;69.93
57709;SHT35;42558;52.388;13.390;2024-03-29T10:54:01;11.41;70.08
57709;SHT35;42558;52.388;13.390;2024-03-29T10:56:33;11.58;70.20
57709;SHT35;42558;52.388;13.390;2024-03-29T10:59:18;11.89;69.34
57709;SHT35;42558;52.388;13.390;2024-03-29T11:01:56;12.23;68.34
57709;SHT35;42558;52.388;13.390;2024-03-29T11:04:29;12.69;68.00
57709;SHT35;42558;52.388;13.390;2024-03-29T11:07:06;13.02;67.49
57709;SHT35;42558;52.388;13.390;2024-03-29T11:09:44;13.47;66.50
57709;SHT35;42558;52.388;13.390;2024-03-29T11:12:21;13.48;65.81
57709;SHT35;42558;52.388;13.390;2024-03-29T11:15:02;13.27;65.78
57709;SHT35;42558;52.388;13.390;2024-03-29T11:17:38;13.16;66.03
57709;SHT35;42558;52.388;13.390;2024-03-29T11:20:08;13.08;66.24
57709;SHT35;42558;52.388;13.390;2024-03-29T11:22:40;12.96;65.88
57709;SHT35;42558;52.388;13.390;2024-03-29T11:25:10;12.93;66.03
57709;SHT35;42558;52.388;13.390;2024-03-29T11:27:42;13.03;66.41
57709;SHT35;42558;52.388;13.390;2024-03-29T11:30:10;12.91;66.17
57709;SHT35;42558;52.388;13.390;2024-03-29T11:32:40;12.69;66.30
57709;SHT35;42558;52.388;13.390;2024-03-29T11:35:16;12.80;66.58
57709;SHT35;42558;52.388;13.390;2024-03-29T11:37:45;12.78;66.01
57709;SHT35;42558;52.388;13.390;2024-03-29T11:40:14;12.62;65.97
57709;SHT35;42558;52.388;13.390;2024-03-29T11:42:44;12.76;66.36
57709;SHT35;42558;52.388;13.390;2024-03-29T11:45:15;12.61;65.94
57709;SHT35;42558;52.388;13.390;2024-03-29T11:47:44;12.56;66.34
57709;SHT35;42558;52.388;13.390;2024-03-29T11:50:15;12.68;66.97
57709;SHT35;42558;52.388;13.390;2024-03-29T11:52:44;12.79;66.48
57709;SHT35;42558;52.388;13.390;2024-03-29T11:55:13;12.69;66.42
57709;SHT35;42558;52.388;13.390;2024-03-29T11:57:43;12.65;67.16
57709;SHT35;42558;52.388;13.390;2024-03-29T12:00:13;12.69;67.96
57709;SHT35;42558;52.388;13.390;2024-03-29T12:02:43;12.52;66.90
57709;SHT35;42558;52.388;13.390;2024-03-29T12:05:12;12.51;67.19
57709;SHT35;42558;52.388;13.390;2024-03-29T12:07:41;12.46;66.92
57709;SHT35;42558;52.388;13.390;2024-03-29T12:10:10;12.46;67.28
57709;SHT35;42558;52.388;13.390;2024-03-29T12:12:40;12.58;67.63
57709;SHT35;42558;52.388;13.390;2024-03-29T12:15:11;12.60;67.48
57709;SHT35;42558;52.388;13.390;2024-03-29T12:17:41;12.68;67.56
57709;SHT35;42558;52.388;13.390;2024-03-29T12:20:11;12.73;66.77
57709;SHT35;42558;52.388;13.390;2024-03-29T12:22:45;12.82;66.38
57709;SHT35;42558;52.388;13.390;2024-03-29T12:25:14;12.98;66.15
57709;SHT35;42558;52.388;13.390;2024-03-29T12:27:43;13.27;64.90
57709;SHT35;42558;52.388;13.390;2024-03-29T12:30:14;13.31;63.74
57709;SHT35;42558;52.388;13.390;2024-03-29T12:32:43;13.52;63.54
57709;SHT35;42558;52.388;13.390;2024-03-29T12:35:14;13.58;62.97
57709;SHT35;42558;52.388;13.390;2024-03-29T12:37:48;13.70;62.62
57709;SHT35;42558;52.388;13.390;2024-03-29T12:40:20;13.85;62.36
57709;SHT35;42558;52.388;13.390;2024-03-29T12:42:52;14.15;62.15
57709;SHT35;42558;52.388;13.390;2024-03-29T12:45:21;14.10;61.19
57709;SHT35;42558;52.388;13.390;2024-03-29T12:47:51;14.41;61.07
57709;SHT35;42558;52.388;13.390;2024-03-29T12:52:57;14.66;60.10
57709;SHT35;42558;52.388;13.390;2024-03-29T12:55:29;14.59;60.38
57709;SHT35;42558;52.388;13.390;2024-03-29T12:58:05;14.77;59.93
57709;SHT35;42558;52.388;13.390;2024-03-29T13:00:39;14.76;58.84
57709;SHT35;42558;52.388;13.390;2024-03-29T13:03:07;14.83;58.43
57709;SHT35;42558;52.388;13.390;2024-03-29T13:05:36;14.93;57.89
57709;SHT35;42558;52.388;13.390;2024-03-29T13:08:10;14.80;58.10
57709;SHT35;42558;52.388;13.390;2024-03-29T13:10:43;14.99;58.22
57709;SHT35;42558;52.388;13.390;2024-03-29T13:13:13;14.96;57.22
57709;SHT35;42558;52.388;13.390;2024-03-29T13:15:42;14.90;56.27
57709;SHT35;42558;52.388;13.390;2024-03-29T13:18:11;14.88;56.41
57709;SHT35;42558;52.388;13.390;2024-03-29T13:20:42;14.98;56.55
57709;SHT35;42558;52.388;13.390;2024-03-29T13:23:11;14.90;55.29
57709;SHT35;42558;52.388;13.390;2024-03-29T13:25:40;14.66;54.48
57709;SHT35;42558;52.388;13.390;2024-03-29T13:28:09;14.72;55.43
57709;SHT35;42558;52.388;13.390;2024-03-29T13:30:39;14.86;54.31
57709;SHT35;42558;52.388;13.390;2024-03-29T13:33:12;14.90;53.70
57709;SHT35;42558;52.388;13.390;2024-03-29T13:35:42;15.07;53.22
57709;SHT35;42558;52.388;13.390;2024-03-29T13:38:12;15.24;52.62
57709;SHT35;42558;52.388;13.390;2024-03-29T13:40:41;15.31;52.77
57709;SHT35;42558;52.388;13.390;2024-03-29T13:43:11;15.38;51.66
57709;SHT35;42558;52.388;13.390;2024-03-29T13:45:40;15.42;51.52
57709;SHT35;42558;52.388;13.390;2024-03-29T13:48:09;15.34;50.99
57709;SHT35;42558;52.388;13.390;2024-03-29T13:50:37;15.28;51.23
57709;SHT35;42558;52.388;13.390;2024-03-29T13:53:06;15.32;51.46
57709;SHT35;42558;52.388;13.390;2024-03-29T13:55:35;15.33;51.17
57709;SHT35;42558;52.388;13.390;2024-03-29T13:58:04;15.46;51.16
57709;SHT35;42558;52.388;13.390;2024-03-29T14:00:33;15.70;50.21
57709;SHT35;42558;52.388;13.390;2024-03-29T14:03:02;15.82;50.43
57709;SHT35;42558;52.388;13.390;2024-03-29T14:05:32;15.81;50.00
57709;SHT35;42558;52.388;13.390;2024-03-29T14:08:00;16.28;50.58
57709;SHT35;42558;52.388;13.390;2024-03-29T14:10:31;16.99;49.12
57709;SHT35;42558;52.388;13.390;2024-03-29T14:13:04;16.67;49.00
57709;SHT35;42558;52.388;13.390;2024-03-29T14:15:33;16.30;49.91
57709;SHT35;42558;52.388;13.390;2024-03-29T14:18:02;16.67;51.04
57709;SHT35;42558;52.388;13.390;2024-03-29T14:20:31;16.47;50.22
57709;SHT35;42558;52.388;13.390;2024-03-29T14:23:00;16.45;51.21
57709;SHT35;42558;52.388;13.390;2024-03-29T14:25:34;16.47;49.78
57709;SHT35;42558;52.388;13.390;2024-03-29T14:28:05;16.15;50.91
57709;SHT35;42558;52.388;13.390;2024-03-29T14:30:35;16.02;51.91
57709;SHT35;42558;52.388;13.390;2024-03-29T14:33:03;15.77;52.50
57709;SHT35;42558;52.388;13.390;2024-03-29T14:35:36;16.18;51.89
57709;SHT35;42558;52.388;13.390;2024-03-29T14:38:05;16.34;51.32
57709;SHT35;42558;52.388;13.390;2024-03-29T14:40:34;16.52;51.05
57709;SHT35;42558;52.388;13.390;2024-03-29T14:43:03;16.43;51.12
57709;SHT35;42558;52.388;13.390;2024-03-29T14:45:33;16.15;52.16
57709;SHT35;42558;52.388;13.390;2024-03-29T14:48:03;16.45;52.35
57709;SHT35;42558;52.388;13.390;2024-03-29T14:50:32;16.20;51.94
57709;SHT35;42558;52.388;13.390;2024-03-29T14:53:01;16.05;52.87
57709;SHT35;42558;52.388;13.390;2024-03-29T14:55:30;15.97;53.05
57709;SHT35;42558;52.388;13.390;2024-03-29T14:57:59;15.85;53.12
57709;SHT35;42558;52.388;13.390;2024-03-29T15:00:28;15.79;53.57
57709;SHT35;42558;52.388;13.390;2024-03-29T15:02:57;15.86;53.89
57709;SHT35;42558;52.388;13.390;2024-03-29T15:05:26;15.78;54.44
57709;SHT35;42558;52.388;13.390;2024-03-29T15:07:55;15.74;55.23
57709;SHT35;42558;52.388;13.390;2024-03-29T15:10:24;15.65;55.74
57709;SHT35;42558;52.388;13.390;2024-03-29T15:12:54;15.50;56.08
57709;SHT35;42558;52.388;13.390;2024-03-29T15:15:23;15.44;56.42
57709;SHT35;42558;52.388;13.390;2024-03-29T15:17:53;15.60;56.26
57709;SHT35;42558;52.388;13.390;2024-03-29T15:20:21;15.65;57.35
57709;SHT35;42558;52.388;13.390;2024-03-29T15:22:50;15.56;56.99
57709;SHT35;42558;52.388;13.390;2024-03-29T15:25:20;15.34;57.55
57709;SHT35;42558;52.388;13.390;2024-03-29T15:27:48;15.17;58.36
57709;SHT35;42558;52.388;13.390;2024-03-29T15:30:36;15.14;58.38
57709;SHT35;42558;52.388;13.390;2024-03-29T15:33:10;15.11;58.84
57709;SHT35;42558;52.388;13.390;2024-03-29T15:35:41;15.12;58.90
57709;SHT35;42558;52.388;13.390;2024-03-29T15:38:10;15.07;59.62
57709;SHT35;42558;52.388;13.390;2024-03-29T15:40:41;15.05;59.80
57709;SHT35;42558;52.388;13.390;2024-03-29T15:43:10;14.99;59.94
57709;SHT35;42558;52.388;13.390;2024-03-29T15:45:40;14.96;60.47